Time;durP1;ratioP1;P1;durP2;ratioP2;P2;SDS_P1;SDS_P2;PMS_P1;PMS_P2;Temp;Humidity;BMP_temperature;BMP_pressure;BME280_temperature;BME280_humidity;BME280_pressure;Samples;Min_cycle;Max_cycle;Signal;HPM_P1;HPM_P2
2022/05/27 00:01:15;;;;;;;2.00;1.45;;;19.20;55.90;;;;;;4973062;28;20043;-51
2022/05/27 00:03:44;;;;;;;1.47;1.10;;;19.10;55.90;;;;;;4972947;28;20049;-51
2022/05/27 00:06:15;;;;;;;2.53;1.10;;;19.20;55.90;;;;;;4968190;28;20482;-51
2022/05/27 00:08:42;;;;;;;1.73;1.20;;;19.20;56.00;;;;;;4973313;28;20055;-51
2022/05/27 00:11:12;;;;;;;2.97;1.42;;;19.10;56.00;;;;;;4973076;28;20094;-49
2022/05/27 00:13:40;;;;;;;1.55;1.10;;;19.10;56.10;;;;;;4985987;28;20061;-47
2022/05/27 00:16:11;;;;;;;1.13;1.08;;;19.20;56.10;;;;;;4966682;28;20102;-48
2022/05/27 00:18:42;;;;;;;1.38;1.27;;;19.10;56.10;;;;;;4970415;28;20082;-47
2022/05/27 00:21:13;;;;;;;7.60;2.10;;;19.10;56.20;;;;;;4973198;28;20410;-51
2022/05/27 00:23:43;;;;;;;1.40;1.30;;;19.10;56.20;;;;;;4972443;28;20057;-51
2022/05/27 00:26:10;;;;;;;2.38;1.17;;;19.10;56.30;;;;;;4968394;28;20491;-54
2022/05/27 00:28:37;;;;;;;2.53;1.30;;;19.10;56.40;;;;;;4972690;28;20051;-50
2022/05/27 00:31:05;;;;;;;2.03;1.08;;;19.10;56.50;;;;;;4971368;28;20058;-50
2022/05/27 00:33:34;;;;;;;5.57;1.42;;;19.10;56.60;;;;;;4971484;28;20042;-51
2022/05/27 00:36:00;;;;;;;2.10;1.30;;;19.10;56.50;;;;;;4966501;28;20073;-51
2022/05/27 00:38:30;;;;;;;2.45;1.38;;;19.10;56.50;;;;;;4970354;28;20583;-51
2022/05/27 00:40:58;;;;;;;4.47;1.17;;;19.10;56.60;;;;;;4972533;28;20425;-50
2022/05/27 00:43:29;;;;;;;3.30;1.13;;;19.00;56.60;;;;;;4972298;28;20039;-51
2022/05/27 00:46:04;;;;;;;2.33;1.30;;;19.00;56.70;;;;;;4968520;28;20049;-48
2022/05/27 00:48:32;;;;;;;2.15;1.00;;;19.00;56.70;;;;;;4972155;28;20313;-50
2022/05/27 00:51:24;;;;;;;2.85;1.13;;;18.90;56.70;;;;;;4972674;28;20137;-51
2022/05/27 00:54:01;;;;;;;1.92;1.15;;;18.90;56.80;;;;;;4967932;28;20079;-49
2022/05/27 00:56:31;;;;;;;1.20;0.88;;;18.90;57.00;;;;;;4968034;28;20118;-49
2022/05/27 00:59:03;;;;;;;2.95;0.93;;;18.90;56.90;;;;;;4971923;28;20067;-52
2022/05/27 01:01:33;;;;;;;3.55;1.05;;;18.80;56.90;;;;;;4972294;28;20183;-49
2022/05/27 01:04:05;;;;;;;3.72;1.30;;;18.80;56.80;;;;;;4968512;28;20507;-49
2022/05/27 01:06:34;;;;;;;1.33;1.20;;;18.80;56.90;;;;;;4977634;28;20043;-48
2022/05/27 01:09:03;;;;;;;2.42;1.02;;;18.80;56.90;;;;;;4992979;23;21076;-53
2022/05/27 01:11:55;;;;;;;1.65;0.80;;;18.70;56.90;;;;;;4972170;28;20035;-48
2022/05/27 01:14:55;;;;;;;3.22;1.00;;;18.70;57.20;;;;;;4969061;28;20062;-48
2022/05/27 01:17:40;;;;;;;2.08;0.82;;;18.70;57.20;;;;;;4971749;28;20057;-49
2022/05/27 01:20:46;;;;;;;4.40;1.23;;;18.70;57.30;;;;;;4972187;28;20093;-48
2022/05/27 01:23:23;;;;;;;5.38;1.40;;;18.70;57.10;;;;;;4949069;28;20127;-50
2022/05/27 01:25:56;;;;;;;1.88;1.08;;;18.70;57.10;;;;;;4970814;28;20038;-48
2022/05/27 01:28:44;;;;;;;2.53;1.20;;;18.70;57.20;;;;;;4972104;28;20046;-48
2022/05/27 01:31:10;;;;;;;1.88;1.20;;;18.70;57.40;;;;;;4970108;28;20098;-51
2022/05/27 01:33:48;;;;;;;1.10;1.00;;;18.70;57.10;;;;;;4971474;28;20050;-49
2022/05/27 01:36:34;;;;;;;1.30;1.08;;;18.70;57.50;;;;;;4971022;28;20557;-50
2022/05/27 01:39:10;;;;;;;1.83;1.20;;;18.70;57.50;;;;;;4969663;28;20562;-50
2022/05/27 01:42:03;;;;;;;3.28;1.02;;;18.60;57.30;;;;;;4970762;28;20043;-49
2022/05/27 01:44:40;;;;;;;2.05;1.02;;;18.60;57.70;;;;;;4969266;28;20097;-52
2022/05/27 01:47:15;;;;;;;1.83;1.30;;;18.60;58.00;;;;;;4971910;28;20648;-51
2022/05/27 01:49:47;;;;;;;1.85;0.70;;;18.70;57.60;;;;;;4970558;28;20395;-52
2022/05/27 01:52:36;;;;;;;3.55;1.15;;;18.60;57.60;;;;;;4970740;28;20051;-52
2022/05/27 01:55:29;;;;;;;3.63;1.08;;;18.60;58.00;;;;;;4970140;28;20055;-50
2022/05/27 01:58:05;;;;;;;2.63;0.82;;;18.60;57.90;;;;;;4971835;28;20070;-50
2022/05/27 02:00:35;;;;;;;1.05;0.73;;;18.60;57.80;;;;;;4970447;28;20043;-52
2022/05/27 02:03:09;;;;;;;3.38;1.20;;;18.60;57.90;;;;;;4971124;28;20039;-49
2022/05/27 02:05:46;;;;;;;2.85;1.10;;;18.60;58.00;;;;;;4970375;28;20495;-52
2022/05/27 02:08:29;;;;;;;3.20;1.05;;;18.60;58.20;;;;;;4970128;28;20529;-52
2022/05/27 02:11:13;;;;;;;4.05;2.65;;;18.60;58.30;;;;;;4969674;28;20640;-52
2022/05/27 02:13:48;;;;;;;2.30;1.10;;;18.60;58.40;;;;;;4963188;28;20705;-51
2022/05/27 02:16:37;;;;;;;2.38;1.10;;;18.60;58.30;;;;;;4970386;28;20063;-48
2022/05/27 02:19:20;;;;;;;2.28;1.23;;;18.60;58.40;;;;;;4970391;28;20391;-51
2022/05/27 02:21:54;;;;;;;3.95;1.10;;;18.60;58.30;;;;;;4970807;28;20047;-50
2022/05/27 02:24:36;;;;;;;3.90;1.27;;;18.60;58.20;;;;;;4970681;28;20074;-51
2022/05/27 02:27:18;;;;;;;3.03;1.08;;;18.60;58.50;;;;;;4971399;28;20157;-52
2022/05/27 02:29:52;;;;;;;2.17;1.10;;;18.60;58.50;;;;;;4970912;28;20042;-49
2022/05/27 02:32:28;;;;;;;3.50;1.23;;;18.50;58.30;;;;;;4970934;28;20081;-50
2022/05/27 02:35:12;;;;;;;0.93;0.80;;;18.50;58.40;;;;;;4969597;28;20097;-49
2022/05/27 02:37:52;;;;;;;3.90;1.55;;;18.50;58.70;;;;;;4970646;28;20042;-52
2022/05/27 02:40:34;;;;;;;2.95;1.02;;;18.50;58.70;;;;;;4969192;28;20093;-48
2022/05/27 02:43:15;;;;;;;2.97;1.52;;;18.50;58.70;;;;;;4952866;28;20055;-50
2022/05/27 02:45:58;;;;;;;3.25;1.25;;;18.50;59.20;;;;;;4968169;28;20118;-49
2022/05/27 02:48:30;;;;;;;4.22;1.33;;;18.40;59.60;;;;;;4970394;28;20093;-52
2022/05/27 02:51:05;;;;;;;3.30;1.17;;;18.50;59.70;;;;;;4970609;28;20491;-52
2022/05/27 02:53:53;;;;;;;1.55;1.27;;;18.40;60.00;;;;;;4972048;28;20503;-52
2022/05/27 02:56:30;;;;;;;2.53;1.25;;;18.30;60.80;;;;;;4972879;28;20387;-53
2022/05/27 02:58:57;;;;;;;1.58;1.25;;;18.20;60.40;;;;;;4956696;28;20038;-50
2022/05/27 03:01:33;;;;;;;3.10;2.00;;;18.20;60.80;;;;;;4974748;28;20556;-49
2022/05/27 03:04:04;;;;;;;2.80;1.50;;;18.20;61.80;;;;;;4974676;28;20499;-48
2022/05/27 03:07:03;;;;;;;1.88;1.52;;;18.10;62.10;;;;;;4971937;28;20105;-49
2022/05/27 03:09:42;;;;;;;3.80;1.60;;;18.00;63.10;;;;;;4974633;28;20034;-49
2022/05/27 03:12:37;;;;;;;2.53;2.30;;;18.00;63.40;;;;;;4975305;28;20057;-49
2022/05/27 03:15:30;;;;;;;5.13;1.30;;;17.90;63.50;;;;;;4973005;28;20105;-49
2022/05/27 03:18:34;;;;;;;2.60;1.40;;;17.80;63.00;;;;;;4972682;28;20085;-49
2022/05/27 03:21:08;;;;;;;4.45;1.77;;;17.70;64.70;;;;;;4974746;28;20481;-49
2022/05/27 03:23:35;;;;;;;;;;;17.60;64.00;;;;;;4973601;28;20053;-57
2022/05/27 03:26:49;;;;;;;3.08;1.90;;;17.60;63.50;;;;;;4971438;28;19983;-50
2022/05/27 03:29:53;;;;;;;3.42;1.73;;;17.50;65.00;;;;;;4974794;28;20105;-53
2022/05/27 03:32:55;;;;;;;4.63;1.85;;;17.40;65.90;;;;;;4976031;28;20118;-49
2022/05/27 03:35:45;;;;;;;6.38;1.98;;;17.30;66.10;;;;;;4991306;28;20080;-51
2022/05/27 03:38:26;;;;;;;3.00;1.42;;;17.30;65.30;;;;;;4992164;28;20105;-52
2022/05/27 03:41:05;;;;;;;2.95;2.13;;;17.20;65.80;;;;;;4995698;28;20125;-49
2022/05/27 03:43:37;;;;;;;2.88;1.70;;;17.20;66.20;;;;;;4999381;28;20093;-49
2022/05/27 03:46:08;;;;;;;3.08;2.65;;;17.20;66.10;;;;;;5000953;28;20042;-52
2022/05/27 03:48:36;;;;;;;3.50;2.00;;;17.10;66.60;;;;;;4999532;28;20045;-52
2022/05/27 03:51:13;;;;;;;2.25;1.90;;;17.10;66.90;;;;;;4995530;28;20096;-51
2022/05/27 03:56:39;;;;;;;3.42;1.85;;;17.00;67.10;;;;;;4992834;28;20042;-49
2022/05/27 03:59:08;;;;;;;2.88;2.13;;;17.00;67.70;;;;;;4992573;28;20084;-53
2022/05/27 04:01:37;;;;;;;2.60;2.33;;;17.00;67.60;;;;;;4989135;28;20503;-47
2022/05/27 04:04:06;;;;;;;3.35;2.33;;;16.90;67.90;;;;;;4991973;28;20043;-51
2022/05/27 04:06:36;;;;;;;2.73;2.53;;;16.90;68.20;;;;;;4990538;28;20490;-52
2022/05/27 04:09:04;;;;;;;3.83;2.55;;;16.90;68.40;;;;;;4988249;28;20682;-51
2022/05/27 04:11:32;;;;;;;2.78;2.28;;;16.90;68.80;;;;;;4991175;28;20048;-47
2022/05/27 04:14:00;;;;;;;4.45;2.00;;;16.90;68.90;;;;;;4991794;28;20689;-51
2022/05/27 04:16:27;;;;;;;4.43;2.47;;;16.90;69.10;;;;;;4990763;28;20093;-50
2022/05/27 04:18:54;;;;;;;3.35;2.75;;;16.90;69.20;;;;;;4991230;28;20397;-52
2022/05/27 04:21:21;;;;;;;3.40;2.25;;;16.90;69.30;;;;;;4991176;28;20093;-48
2022/05/27 04:23:50;;;;;;;2.67;2.10;;;16.90;69.40;;;;;;4991578;28;20483;-51
2022/05/27 04:26:19;;;;;;;3.37;2.37;;;16.90;69.60;;;;;;4991459;28;20746;-49
2022/05/27 04:28:46;;;;;;;2.92;2.63;;;16.90;69.60;;;;;;4975765;28;20081;-48
2022/05/27 04:31:15;;;;;;;2.67;2.40;;;16.90;69.70;;;;;;4992372;28;20058;-51
2022/05/27 04:33:45;;;;;;;3.25;2.50;;;16.90;70.60;;;;;;4992489;28;20069;-51
2022/05/27 04:36:15;;;;;;;3.78;3.08;;;16.90;69.70;;;;;;4991817;28;20054;-50
2022/05/27 04:38:42;;;;;;;3.20;2.60;;;16.90;69.90;;;;;;4990304;28;20093;-48
2022/05/27 04:41:12;;;;;;;4.95;3.72;;;16.90;70.00;;;;;;4992900;28;20038;-49
2022/05/27 04:43:39;;;;;;;7.63;5.70;;;16.90;70.20;;;;;;4991807;28;20402;-50
2022/05/27 04:46:08;;;;;;;10.20;7.60;;;16.90;70.30;;;;;;4990697;28;20053;-48
2022/05/27 04:48:37;;;;;;;5.78;5.05;;;16.90;70.40;;;;;;4992205;28;20117;-48
2022/05/27 04:51:04;;;;;;;2.75;1.95;;;16.90;70.40;;;;;;4992652;28;20092;-49
2022/05/27 04:53:30;;;;;;;2.72;1.55;;;16.90;70.10;;;;;;4991394;28;20038;-48
2022/05/27 04:55:57;;;;;;;1.02;0.80;;;17.00;70.20;;;;;;4990716;28;20069;-50
2022/05/27 04:58:27;;;;;;;1.05;0.50;;;16.90;70.10;;;;;;4991664;28;20046;-48
2022/05/27 05:00:58;;;;;;;0.68;0.65;;;16.90;70.10;;;;;;4992330;28;20062;-49
2022/05/27 05:03:33;;;;;;;0.60;0.60;;;16.90;70.00;;;;;;4989734;28;20125;-50
2022/05/27 05:06:05;;;;;;;0.70;0.43;;;16.90;69.80;;;;;;4991353;28;20065;-48
2022/05/27 05:08:36;;;;;;;2.60;1.08;;;17.00;70.30;;;;;;4991408;28;20046;-48
2022/05/27 05:11:06;;;;;;;1.40;0.60;;;16.90;69.90;;;;;;4992313;28;20065;-48
2022/05/27 05:13:36;;;;;;;0.88;0.55;;;16.90;69.80;;;;;;4989037;28;20070;-48
2022/05/27 05:16:04;;;;;;;1.38;0.70;;;16.90;69.60;;;;;;4989920;28;20081;-48
2022/05/27 05:18:31;;;;;;;1.95;1.00;;;16.90;69.80;;;;;;4991644;28;20050;-48
2022/05/27 05:20:57;;;;;;;0.95;0.70;;;16.90;69.90;;;;;;4992119;28;20034;-49
2022/05/27 05:23:24;;;;;;;2.65;0.70;;;16.90;69.80;;;;;;4991997;28;20073;-49
2022/05/27 05:25:51;;;;;;;1.02;0.57;;;16.90;69.70;;;;;;4990471;28;20044;-51
2022/05/27 05:28:21;;;;;;;1.42;0.68;;;16.90;69.80;;;;;;4991416;28;20502;-49
2022/05/27 05:30:51;;;;;;;1.48;1.08;;;16.80;69.90;;;;;;4991841;28;20043;-49
2022/05/27 05:33:18;;;;;;;0.98;0.90;;;16.80;70.00;;;;;;4991093;28;20085;-49
2022/05/27 05:35:46;;;;;;;2.35;0.82;;;16.80;70.00;;;;;;4988478;28;20045;-48
2022/05/27 05:38:22;;;;;;;0.70;0.70;;;16.80;70.00;;;;;;4989773;28;20626;-48
2022/05/27 05:40:49;;;;;;;0.85;0.80;;;16.80;70.40;;;;;;4991871;28;20046;-51
2022/05/27 05:43:16;;;;;;;2.40;1.13;;;16.80;70.30;;;;;;4991145;28;20073;-48
2022/05/27 05:45:43;;;;;;;0.75;0.70;;;16.80;70.30;;;;;;4989344;28;20042;-49
2022/05/27 05:48:12;;;;;;;3.15;0.90;;;16.80;70.30;;;;;;4991781;28;20050;-50
2022/05/27 05:50:39;;;;;;;1.70;0.90;;;16.80;70.60;;;;;;4990143;28;20383;-48
2022/05/27 05:53:11;;;;;;;3.42;0.95;;;16.80;70.30;;;;;;4988147;28;20129;-51
2022/05/27 05:55:38;;;;;;;1.83;1.15;;;16.80;70.10;;;;;;4987544;28;20038;-51
2022/05/27 05:58:08;;;;;;;2.70;0.85;;;16.80;70.40;;;;;;4991282;28;20034;-53
2022/05/27 06:00:36;;;;;;;1.98;1.00;;;16.80;70.40;;;;;;4991410;28;20737;-51
2022/05/27 06:03:05;;;;;;;3.40;0.98;;;16.80;70.20;;;;;;4990091;28;20042;-51
2022/05/27 06:05:31;;;;;;;2.90;1.10;;;16.80;70.10;;;;;;4986306;28;20042;-48
2022/05/27 06:08:01;;;;;;;2.03;1.00;;;16.80;70.00;;;;;;4988095;28;20054;-51
2022/05/27 06:10:30;;;;;;;1.80;1.00;;;16.90;69.90;;;;;;4970616;28;20545;-50
2022/05/27 06:12:59;;;;;;;1.25;1.10;;;16.90;70.10;;;;;;4980402;28;20046;-52
2022/05/27 06:15:26;;;;;;;3.75;1.30;;;16.90;70.50;;;;;;4986298;28;20054;-52
2022/05/27 06:17:59;;;;;;;2.25;1.10;;;16.90;70.40;;;;;;4987980;28;20045;-53
2022/05/27 06:20:27;;;;;;;1.48;0.90;;;16.90;70.40;;;;;;4985655;28;20126;-53
2022/05/27 06:22:53;;;;;;;3.38;1.10;;;17.00;70.20;;;;;;4985760;28;20070;-49
2022/05/27 06:25:22;;;;;;;1.98;1.27;;;17.00;70.10;;;;;;4986687;28;20188;-51
2022/05/27 06:27:49;;;;;;;1.45;1.35;;;17.00;70.10;;;;;;4988305;28;20070;-53
2022/05/27 06:36:06;;;;;;;2.40;1.55;;;17.10;70.40;;;;;;4911463;29;20051;-52
2022/05/27 06:38:35;;;;;;;1.83;1.73;;;17.10;70.20;;;;;;4894250;29;20116;-48
2022/05/27 06:41:03;;;;;;;2.67;2.08;;;17.20;70.40;;;;;;4944858;28;20113;-51
2022/05/27 06:43:29;;;;;;;3.35;1.85;;;17.20;70.40;;;;;;4976931;28;20057;-50
2022/05/27 06:45:58;;;;;;;3.25;1.63;;;17.30;71.10;;;;;;4974453;28;20129;-51
2022/05/27 06:48:25;;;;;;;2.72;1.77;;;17.20;70.60;;;;;;4985229;28;20584;-52
2022/05/27 06:50:52;;;;;;;3.35;1.50;;;17.30;70.70;;;;;;4990970;28;20043;-50
2022/05/27 06:53:22;;;;;;;2.58;1.55;;;17.30;70.80;;;;;;4961163;28;20058;-51
2022/05/27 06:55:50;;;;;;;1.83;1.70;;;17.50;70.90;;;;;;4987554;28;20046;-51
2022/05/27 06:58:21;;;;;;;2.60;1.67;;;17.60;70.70;;;;;;4983006;28;20530;-53
2022/05/27 07:00:48;;;;;;;2.10;1.75;;;17.80;70.50;;;;;;4976370;28;20046;-49
2022/05/27 07:03:15;;;;;;;2.55;1.70;;;17.90;70.30;;;;;;4961388;28;20042;-49
2022/05/27 07:05:41;;;;;;;4.25;2.33;;;18.00;70.20;;;;;;4981895;28;20120;-52
2022/05/27 07:08:08;;;;;;;3.00;2.38;;;18.00;69.70;;;;;;4977071;28;20062;-49
2022/05/27 07:10:35;;;;;;;3.75;3.30;;;18.10;69.50;;;;;;4988166;28;20510;-48
2022/05/27 07:13:07;;;;;;;4.25;3.67;;;18.10;69.80;;;;;;4976472;28;20564;-53
2022/05/27 07:15:33;;;;;;;3.50;3.20;;;18.20;69.60;;;;;;4987233;28;20149;-50
2022/05/27 07:18:04;;;;;;;4.20;3.67;;;18.30;69.80;;;;;;4977678;28;20129;-52
2022/05/27 07:20:31;;;;;;;6.13;4.57;;;18.30;70.10;;;;;;4986078;28;20454;-51
2022/05/27 07:22:57;;;;;;;7.65;5.10;;;18.40;70.10;;;;;;4977852;28;20065;-51
2022/05/27 07:25:24;;;;;;;5.60;5.05;;;18.40;69.80;;;;;;4977896;28;20108;-50
2022/05/27 07:27:51;;;;;;;6.10;5.20;;;18.40;70.10;;;;;;4981008;28;20041;-52
2022/05/27 07:30:18;;;;;;;6.13;4.95;;;18.50;70.40;;;;;;4981249;28;20502;-53
2022/05/27 07:32:45;;;;;;;8.15;5.18;;;18.50;70.50;;;;;;4979169;28;20133;-52
2022/05/27 07:35:12;;;;;;;7.35;4.95;;;18.60;70.60;;;;;;4978514;28;20109;-50
2022/05/27 07:37:39;;;;;;;6.85;4.88;;;18.70;69.50;;;;;;4977262;28;20518;-53
2022/05/27 07:40:06;;;;;;;6.05;4.57;;;18.70;69.60;;;;;;4983561;28;20089;-49
2022/05/27 07:42:33;;;;;;;6.35;4.40;;;18.80;69.00;;;;;;4977589;28;20122;-51
2022/05/27 07:45:00;;;;;;;5.32;4.32;;;18.80;68.90;;;;;;4984279;28;20034;-52
2022/05/27 07:47:27;;;;;;;6.43;4.28;;;18.80;68.80;;;;;;4973913;28;20070;-53
2022/05/27 07:49:53;;;;;;;6.35;4.05;;;18.90;69.00;;;;;;4980230;28;20034;-49
2022/05/27 07:52:20;;;;;;;5.20;4.70;;;18.90;68.70;;;;;;4979812;28;20050;-50
2022/05/27 07:54:47;;;;;;;6.10;3.72;;;19.00;68.40;;;;;;4985880;28;20120;-51
2022/05/27 07:57:24;;;;;;;11.18;4.32;;;19.10;68.00;;;;;;4977584;28;20074;-50
2022/05/27 08:00:04;;;;;;;6.38;4.10;;;19.10;67.40;;;;;;4981301;28;20035;-48
2022/05/27 08:02:38;;;;;;;7.03;4.47;;;19.10;67.00;;;;;;4976980;28;20042;-53
2022/05/27 08:05:07;;;;;;;4.97;3.65;;;19.10;66.10;;;;;;4986669;28;20279;-50
2022/05/27 08:07:34;;;;;;;6.20;3.40;;;19.10;65.90;;;;;;4977424;28;20066;-52
2022/05/27 08:10:00;;;;;;;5.95;2.83;;;19.10;65.40;;;;;;4981259;28;20108;-52
2022/05/27 08:12:27;;;;;;;5.32;3.20;;;19.10;64.90;;;;;;4974312;28;20128;-53
2022/05/27 08:14:54;;;;;;;8.10;3.85;;;19.10;64.90;;;;;;4986229;28;20046;-50
2022/05/27 08:17:21;;;;;;;8.88;3.65;;;19.10;65.20;;;;;;4976359;28;20057;-51
2022/05/27 08:19:48;;;;;;;5.18;3.13;;;19.20;65.30;;;;;;4978629;28;20053;-52
2022/05/27 08:22:15;;;;;;;3.88;3.17;;;19.20;65.50;;;;;;4977792;28;20137;-53
2022/05/27 08:24:42;;;;;;;5.68;3.60;;;19.20;65.80;;;;;;4981615;28;20038;-53
2022/05/27 08:27:10;;;;;;;7.22;3.70;;;19.30;66.40;;;;;;4980367;28;20038;-53
2022/05/27 08:29:37;;;;;;;7.15;2.42;;;19.40;65.60;;;;;;4968751;28;20038;-49
2022/05/27 08:32:04;;;;;;;4.43;2.40;;;19.50;64.10;;;;;;4976816;28;20104;-52
2022/05/27 08:40:51;;;;;;;5.25;2.78;;;19.60;62.70;;;;;;4985181;28;20045;-51
2022/05/27 08:43:30;;;;;;;4.57;2.40;;;19.60;62.20;;;;;;4967988;28;20446;-53
2022/05/27 08:46:34;;;;;;;3.95;2.30;;;19.70;61.10;;;;;;4981119;28;20092;-51
2022/05/27 08:49:07;;;;;;;4.30;3.40;;;19.70;60.80;;;;;;4975186;28;20066;-51
2022/05/27 08:51:53;;;;;;;6.97;2.88;;;19.70;61.90;;;;;;4962468;28;20054;-54
2022/05/27 08:54:28;;;;;;;3.83;2.45;;;19.80;62.80;;;;;;4964452;28;20043;-53
2022/05/27 09:00:14;;;;;;;6.35;2.40;;;19.90;61.50;;;;;;4977803;28;20058;-49
2022/05/27 09:02:55;;;;;;;6.30;2.97;;;20.00;60.30;;;;;;4973777;28;20797;-53
2022/05/27 09:05:35;;;;;;;3.58;2.90;;;20.10;61.80;;;;;;4979940;28;20061;-52
2022/05/27 09:08:04;;;;;;;5.75;3.60;;;20.20;60.20;;;;;;4973333;28;20101;-53
2022/05/27 09:10:33;;;;;;;4.22;2.95;;;20.30;60.00;;;;;;4984775;28;20105;-53
2022/05/27 09:13:28;;;;;;;3.80;2.95;;;20.40;59.30;;;;;;4976509;28;20026;-52
2022/05/27 09:16:24;;;;;;;6.07;2.78;;;20.50;59.10;;;;;;4961562;28;20046;-54
2022/05/27 09:19:22;;;;;;;4.68;2.88;;;20.60;61.40;;;;;;4986215;28;20089;-53
2022/05/27 09:22:08;;;;;;;6.25;2.70;;;20.70;59.50;;;;;;4976964;28;20953;-53
2022/05/27 09:24:50;;;;;;;3.85;2.22;;;20.70;60.20;;;;;;4984361;28;20034;-51
2022/05/27 09:27:22;;;;;;;6.30;3.22;;;20.80;59.50;;;;;;4978166;28;20077;-53
2022/05/27 09:29:53;;;;;;;5.18;2.80;;;20.70;59.60;;;;;;4978593;28;20093;-51
2022/05/27 09:32:49;;;;;;;6.47;2.83;;;20.80;59.90;;;;;;4977292;28;20498;-53
2022/05/27 09:35:25;;;;;;;5.80;3.05;;;20.80;59.90;;;;;;4977416;28;20065;-53
2022/05/27 09:38:19;;;;;;;2.53;2.33;;;20.80;59.50;;;;;;4980076;28;20080;-53
2022/05/27 09:40:56;;;;;;;4.30;2.50;;;20.90;59.40;;;;;;4988548;28;20038;-53
2022/05/27 09:43:44;;;;;;;3.58;2.30;;;21.00;57.80;;;;;;4971073;28;20109;-52
2022/05/27 09:46:23;;;;;;;5.40;2.33;;;21.10;57.00;;;;;;4977752;28;20073;-52
2022/05/27 09:48:50;;;;;;;2.83;1.92;;;21.10;57.20;;;;;;4986334;28;20054;-53
2022/05/27 09:51:18;;;;;;;3.13;1.65;;;21.10;58.00;;;;;;4980601;28;20108;-52
2022/05/27 09:53:51;;;;;;;5.95;2.05;;;21.20;57.10;;;;;;4986563;28;20062;-50
2022/05/27 09:56:38;;;;;;;4.22;1.80;;;21.20;56.00;;;;;;4978774;28;20070;-51
2022/05/27 09:59:18;;;;;;;3.53;1.48;;;21.30;56.20;;;;;;4979692;28;20047;-53
2022/05/27 10:01:45;;;;;;;2.47;2.08;;;21.40;55.00;;;;;;4977470;28;20046;-52
2022/05/27 10:04:14;;;;;;;3.88;1.70;;;21.50;55.30;;;;;;4972730;28;20094;-53
2022/05/27 10:06:41;;;;;;;7.72;2.10;;;21.50;53.10;;;;;;4976803;28;20050;-52
2022/05/27 10:09:23;;;;;;;6.00;1.95;;;21.50;52.70;;;;;;4990091;28;20053;-54
2022/05/27 10:11:52;;;;;;;3.47;1.75;;;21.50;52.60;;;;;;4979748;28;20046;-51
2022/05/27 10:14:31;;;;;;;2.78;1.55;;;21.50;53.50;;;;;;4977952;28;20073;-52
2022/05/27 10:17:09;;;;;;;2.72;1.75;;;21.40;52.30;;;;;;4953171;28;20677;-53
2022/05/27 10:19:46;;;;;;;5.05;2.25;;;21.30;53.00;;;;;;4979111;28;20041;-53
2022/05/27 10:22:25;;;;;;;4.30;1.88;;;21.20;53.90;;;;;;4977293;28;20070;-53
2022/05/27 10:25:02;;;;;;;3.42;1.80;;;21.10;53.20;;;;;;4981986;28;20038;-51
2022/05/27 10:27:35;;;;;;;3.25;1.65;;;21.10;52.80;;;;;;4974248;28;20043;-53
2022/05/27 10:30:22;;;;;;;2.67;1.60;;;21.00;52.00;;;;;;4982576;28;20047;-52
2022/05/27 10:32:50;;;;;;;2.67;1.50;;;20.90;52.90;;;;;;4973782;28;20534;-53
2022/05/27 10:35:26;;;;;;;5.88;1.80;;;20.90;52.90;;;;;;4976948;28;20554;-53
2022/05/27 10:38:14;;;;;;;3.30;2.13;;;20.90;53.30;;;;;;4975678;28;20039;-53
2022/05/27 10:41:19;;;;;;;2.97;1.42;;;21.00;53.60;;;;;;4985747;28;20045;-53
2022/05/27 10:44:05;;;;;;;2.63;1.33;;;21.10;52.30;;;;;;4984032;28;20515;-52
2022/05/27 10:46:38;;;;;;;4.40;2.15;;;21.30;51.80;;;;;;4967045;28;20042;-50
2022/05/27 10:49:10;;;;;;;4.15;1.92;;;21.30;53.00;;;;;;4981320;28;20078;-52
2022/05/27 10:51:37;;;;;;;;;;;21.30;53.20;;;;;;4978191;28;20047;-57
2022/05/27 10:54:31;;;;;;;3.45;1.85;;;21.40;53.40;;;;;;4985787;28;19922;-53
2022/05/27 11:03:36;;;;;;;6.65;1.88;;;21.20;51.60;;;;;;4976016;28;20050;-52
2022/05/27 11:06:47;;;;;;;2.80;1.77;;;21.20;50.50;;;;;;4984642;28;20117;-49
2022/05/27 11:09:36;;;;;;;6.05;2.25;;;21.20;50.90;;;;;;4981944;28;20050;-49
2022/05/27 11:12:21;;;;;;;5.82;1.70;;;21.10;51.20;;;;;;4978388;28;20478;-53
2022/05/27 11:15:12;;;;;;;3.28;1.50;;;21.20;51.90;;;;;;4979693;28;20464;-54
2022/05/27 11:18:08;;;;;;;4.82;1.55;;;21.20;50.90;;;;;;4980505;28;20105;-53
2022/05/27 11:21:04;;;;;;;4.57;1.98;;;21.30;50.50;;;;;;4980095;28;20070;-52
2022/05/27 11:23:43;;;;;;;7.32;2.03;;;21.40;50.30;;;;;;4953535;28;20072;-53
2022/05/27 11:26:43;;;;;;;8.43;2.10;;;21.50;51.60;;;;;;4985990;28;20046;-52
2022/05/27 11:29:20;;;;;;;5.60;2.22;;;21.60;50.80;;;;;;4977334;28;20465;-52
2022/05/27 11:32:03;;;;;;;3.80;1.50;;;21.60;50.30;;;;;;4980647;28;20418;-50
2022/05/27 11:34:40;;;;;;;3.55;2.15;;;21.70;49.60;;;;;;4975585;28;20046;-52
2022/05/27 11:37:25;;;;;;;5.30;1.55;;;21.70;49.00;;;;;;4982801;28;20502;-52
2022/05/27 11:40:19;;;;;;;2.97;1.65;;;21.80;48.50;;;;;;4984128;28;20104;-53
2022/05/27 11:42:52;;;;;;;4.20;1.75;;;21.80;50.10;;;;;;4979848;28;20047;-52
2022/05/27 11:45:31;;;;;;;3.92;1.83;;;21.80;48.60;;;;;;4980516;28;20539;-49
2022/05/27 11:48:08;;;;;;;3.13;1.75;;;21.80;48.00;;;;;;4981271;28;20046;-52
2022/05/27 11:50:48;;;;;;;4.88;1.92;;;21.80;48.00;;;;;;4989702;28;20042;-53
2022/05/27 11:53:45;;;;;;;5.93;1.83;;;21.80;47.40;;;;;;4972790;28;20043;-51
2022/05/27 11:56:47;;;;;;;6.00;1.70;;;21.80;47.30;;;;;;4984429;28;20070;-48
2022/05/27 11:59:40;;;;;;;3.90;1.35;;;21.80;46.50;;;;;;4986265;28;20042;-53
2022/05/27 12:02:27;;;;;;;6.53;1.92;;;21.90;47.80;;;;;;4974104;28;20073;-51
2022/05/27 12:05:06;;;;;;;8.70;2.13;;;21.90;46.90;;;;;;4976668;28;20719;-48
2022/05/27 12:07:55;;;;;;;4.95;1.73;;;21.90;46.40;;;;;;4979531;28;20113;-53
2022/05/27 12:10:38;;;;;;;3.53;1.80;;;21.80;45.80;;;;;;4987586;28;20399;-50
2022/05/27 12:13:25;;;;;;;8.85;2.30;;;21.80;46.70;;;;;;4978431;28;20100;-52
2022/05/27 12:16:05;;;;;;;3.88;2.17;;;21.80;47.30;;;;;;4980496;28;20070;-53
2022/05/27 12:18:54;;;;;;;3.45;1.60;;;21.80;46.20;;;;;;4982018;28;20039;-52
2022/05/27 12:21:24;;;;;;;2.55;1.60;;;21.90;45.50;;;;;;4981707;28;20043;-52
2022/05/27 12:23:59;;;;;;;3.83;1.50;;;21.90;46.50;;;;;;4987789;28;20768;-49
2022/05/27 12:26:36;;;;;;;3.92;1.60;;;22.10;45.40;;;;;;4977558;28;20112;-52
2022/05/27 12:29:06;;;;;;;5.28;1.70;;;22.20;45.10;;;;;;4983771;28;20049;-53
2022/05/27 12:31:34;;;;;;;6.32;2.03;;;22.30;45.00;;;;;;4980250;28;20809;-52
2022/05/27 12:34:26;;;;;;;10.63;2.42;;;22.20;45.50;;;;;;4976382;28;20039;-52
2022/05/27 12:36:54;;;;;;;4.55;1.65;;;22.30;45.10;;;;;;4968238;28;20066;-50
2022/05/27 12:39:24;;;;;;;3.22;1.33;;;22.30;45.70;;;;;;4986332;28;20089;-54
2022/05/27 12:42:10;;;;;;;5.45;1.95;;;22.30;44.50;;;;;;4981511;28;20038;-52
2022/05/27 12:44:39;;;;;;;6.50;1.85;;;22.40;44.70;;;;;;4978302;28;20105;-52
2022/05/27 12:47:28;;;;;;;4.75;1.88;;;22.40;44.80;;;;;;4977619;28;20133;-54
2022/05/27 12:50:05;;;;;;;6.43;2.22;;;22.50;43.90;;;;;;4979008;28;20105;-54
2022/05/27 12:52:32;;;;;;;5.25;1.90;;;22.50;42.20;;;;;;4980288;28;20091;-52
2022/05/27 12:55:10;;;;;;;4.78;1.88;;;22.50;43.70;;;;;;4986988;28;20042;-53
2022/05/27 13:01:05;;;;;;;4.45;2.30;;;22.40;41.10;;;;;;4982481;28;20094;-51
2022/05/27 13:03:39;;;;;;;4.30;1.75;;;22.50;42.40;;;;;;4981503;28;20050;-53
2022/05/27 13:06:17;;;;;;;7.75;2.22;;;22.50;42.20;;;;;;4983143;28;20042;-52
2022/05/27 13:08:53;;;;;;;5.90;2.10;;;22.50;41.70;;;;;;4985598;28;20859;-52
2022/05/27 13:11:31;;;;;;;5.30;2.45;;;22.60;42.60;;;;;;4978776;28;20046;-50
2022/05/27 13:14:04;;;;;;;6.30;1.75;;;22.70;42.00;;;;;;4983144;28;20490;-53
2022/05/27 13:17:10;;;;;;;3.25;1.65;;;22.70;41.80;;;;;;4976560;28;20435;-54
2022/05/27 13:19:42;;;;;;;7.07;2.33;;;22.80;41.50;;;;;;4980495;28;20309;-53
2022/05/27 13:22:14;;;;;;;6.63;2.25;;;22.80;40.90;;;;;;4978115;28;20092;-50
2022/05/27 13:24:47;;;;;;;4.22;2.00;;;22.70;41.50;;;;;;4986603;28;20089;-54
2022/05/27 13:27:32;;;;;;;10.43;3.22;;;22.70;41.30;;;;;;4979941;28;20498;-52
2022/05/27 13:30:08;;;;;;;4.72;1.73;;;22.80;42.40;;;;;;4978242;28;20046;-54
2022/05/27 13:32:56;;;;;;;4.95;2.00;;;23.10;43.10;;;;;;4977724;28;20054;-53
2022/05/27 13:35:23;;;;;;;4.63;1.77;;;23.50;43.40;;;;;;4979678;28;20105;-51
2022/05/27 13:37:57;;;;;;;5.03;2.00;;;24.10;44.80;;;;;;4979896;28;20101;-54
2022/05/27 13:40:30;;;;;;;3.80;2.22;;;24.60;42.80;;;;;;4987935;28;20085;-53
2022/05/27 13:43:04;;;;;;;4.40;1.90;;;25.00;40.20;;;;;;4975419;28;20046;-54
2022/05/27 13:45:40;;;;;;;6.75;1.75;;;25.20;40.00;;;;;;4985892;28;20047;-54
2022/05/27 13:48:10;;;;;;;5.82;2.10;;;25.40;39.60;;;;;;4974534;28;20090;-53
2022/05/27 13:50:42;;;;;;;3.17;1.70;;;25.70;40.20;;;;;;4984478;28;20094;-54
2022/05/27 13:53:22;;;;;;;4.97;2.00;;;26.10;40.30;;;;;;4978034;28;20031;-53
2022/05/27 13:56:15;;;;;;;5.40;2.00;;;26.60;38.40;;;;;;4986906;28;20039;-53
2022/05/27 13:59:02;;;;;;;;;;;27.20;39.10;;;;;;4977317;28;20078;-53